Time;durP1;ratioP1;P1;durP2;ratioP2;P2;SDS_P1;SDS_P2;PMS_P1;PMS_P2;Temp;Humidity;BMP_temperature;BMP_pressure;BME280_temperature;BME280_humidity;BME280_pressure;Samples;Min_cycle;Max_cycle;Signal;HPM_P1;HPM_P2
2022/03/23 00:01:03;;;;;;;;;;;;;;;;;;5050256;28;20387;-73
2022/03/23 00:03:29;;;;;;;;;;;;;;;;;;5049951;28;20368;-74
2022/03/23 00:05:55;;;;;;;;;;;;;;;;;;5051606;28;19967;-74
2022/03/23 00:08:22;;;;;;;;;;;;;;;;;;5051330;28;19917;-74
2022/03/23 00:10:48;;;;;;;;;;;;;;;;;;5051577;28;19919;-73
2022/03/23 00:13:13;;;;;;;;;;;;;;;;;;5049531;28;20367;-74
2022/03/23 00:15:39;;;;;;;;;;;;;;;;;;5050332;28;19974;-73
2022/03/23 00:18:06;;;;;;;;;;;;;;;;;;5051695;28;19969;-74
2022/03/23 00:20:32;;;;;;;;;;;;;;;;;;5051495;28;20495;-74
2022/03/23 00:22:58;;;;;;;;;;;;;;;;;;5051359;28;20026;-74
2022/03/23 00:25:24;;;;;;;;;;;;;;;;;;5051534;28;19913;-73
2022/03/23 00:27:50;;;;;;;;;;;;;;;;;;5051618;28;19913;-74
2022/03/23 00:30:17;;;;;;;;;;;;;;;;;;5051470;28;19913;-74
2022/03/23 00:32:43;;;;;;;;;;;;;;;;;;5051438;28;19916;-74
2022/03/23 00:35:09;;;;;;;;;;;;;;;;;;5051373;28;19920;-73
2022/03/23 00:37:35;;;;;;;;;;;;;;;;;;5050998;28;19912;-73
2022/03/23 00:40:01;;;;;;;;;;;;;;;;;;5051196;28;19955;-74
2022/03/23 00:42:27;;;;;;;;;;;;;;;;;;5051287;28;20389;-73
2022/03/23 00:44:53;;;;;;;;;;;;;;;;;;5049773;28;19960;-73
2022/03/23 00:47:19;;;;;;;;;;;;;;;;;;5049843;28;19913;-74
2022/03/23 00:49:45;;;;;;;;;;;;;;;;;;5051226;28;19913;-74
2022/03/23 00:52:11;;;;;;;;;;;;;;;;;;5051147;28;20016;-74
2022/03/23 00:54:38;;;;;;;;;;;;;;;;;;5049814;28;20262;-73
2022/03/23 00:57:04;;;;;;;;;;;;;;;;;;5049773;28;19932;-74
2022/03/23 00:59:29;;;;;;;;;;;;;;;;;;5049661;28;19920;-72
2022/03/23 01:01:55;;;;;;;;;;;;;;;;;;5049510;28;19920;-72
2022/03/23 01:04:22;;;;;;;;;;;;;;;;;;5050693;28;19925;-73
2022/03/23 01:06:48;;;;;;;;;;;;;;;;;;5050884;28;19964;-73
2022/03/23 01:09:14;;;;;;;;;;;;;;;;;;5049623;28;19913;-73
2022/03/23 01:11:40;;;;;;;;;;;;;;;;;;5049970;28;19909;-73
2022/03/23 01:14:06;;;;;;;;;;;;;;;;;;5050945;28;19960;-73
2022/03/23 01:16:32;;;;;;;;;;;;;;;;;;5050854;28;19940;-73
2022/03/23 01:18:57;;;;;;;;;;;;;;;;;;5050851;28;20357;-74
2022/03/23 01:21:23;;;;;;;;;;;;;;;;;;5050979;28;19915;-75
2022/03/23 01:23:50;;;;;;;;;;;;;;;;;;5050720;28;19916;-74
2022/03/23 01:26:15;;;;;;;;;;;;;;;;;;5052307;28;19944;-74
2022/03/23 01:28:41;;;;;;;;;;;;;;;;;;5054884;28;19971;-73
2022/03/23 01:31:08;;;;;;;;;;;;;;;;;;5053234;28;19913;-73
2022/03/23 01:33:34;;;;;;;;;;;;;;;;;;5054199;28;19952;-73
2022/03/23 01:36:00;;;;;;;;;;;;;;;;;;5052913;28;20313;-73
2022/03/23 01:38:26;;;;;;;;;;;;;;;;;;5054430;28;19982;-74
2022/03/23 01:40:52;;;;;;;;;;;;;;;;;;5054186;28;19916;-73
2022/03/23 01:43:17;;;;;;;;;;;;;;;;;;5054327;28;19923;-74
2022/03/23 01:45:43;;;;;;;;;;;;;;;;;;5054119;28;19963;-74
2022/03/23 01:48:09;;;;;;;;;;;;;;;;;;5052534;28;19952;-73
2022/03/23 01:50:36;;;;;;;;;;;;;;;;;;5052710;28;20296;-74
2022/03/23 01:53:02;;;;;;;;;;;;;;;;;;5054206;28;20383;-74
2022/03/23 01:55:28;;;;;;;;;;;;;;;;;;5052555;28;19913;-74
2022/03/23 01:57:54;;;;;;;;;;;;;;;;;;5052630;28;19920;-74
2022/03/23 02:00:20;;;;;;;;;;;;;;;;;;5054125;28;20312;-75
2022/03/23 02:02:46;;;;;;;;;;;;;;;;;;5053618;28;19920;-73
2022/03/23 02:05:12;;;;;;;;;;;;;;;;;;5053694;28;20034;-73
2022/03/23 02:07:39;;;;;;;;;;;;;;;;;;5052442;28;19967;-73
2022/03/23 02:10:05;;;;;;;;;;;;;;;;;;5053738;28;19920;-73
2022/03/23 02:12:31;;;;;;;;;;;;;;;;;;5053866;28;19913;-73
2022/03/23 02:14:58;;;;;;;;;;;;;;;;;;5053728;28;20017;-73
2022/03/23 02:17:24;;;;;;;;;;;;;;;;;;5052471;28;19912;-74
2022/03/23 02:19:50;;;;;;;;;;;;;;;;;;5052619;28;19986;-74
2022/03/23 02:22:16;;;;;;;;;;;;;;;;;;5052302;28;19913;-74
2022/03/23 02:24:42;;;;;;;;;;;;;;;;;;5052183;28;20308;-74
2022/03/23 02:27:08;;;;;;;;;;;;;;;;;;5053401;28;20315;-74
2022/03/23 02:29:34;;;;;;;;;;;;;;;;;;5053311;28;19912;-74
2022/03/23 02:32:01;;;;;;;;;;;;;;;;;;5053296;28;20361;-74
2022/03/23 02:34:27;;;;;;;;;;;;;;;;;;5053177;28;19912;-75
2022/03/23 02:36:52;;;;;;;;;;;;;;;;;;5051334;28;20334;-74
2022/03/23 02:39:18;;;;;;;;;;;;;;;;;;5053049;28;20547;-75
2022/03/23 02:41:45;;;;;;;;;;;;;;;;;;5053054;28;19909;-74
2022/03/23 02:44:10;;;;;;;;;;;;;;;;;;5051405;28;19978;-73
2022/03/23 02:46:36;;;;;;;;;;;;;;;;;;5051703;28;20365;-73
2022/03/23 02:49:03;;;;;;;;;;;;;;;;;;5051477;28;19917;-74
2022/03/23 02:51:29;;;;;;;;;;;;;;;;;;5051513;28;20300;-74
2022/03/23 03:02:09;;;;;;;;;;;;;;;;;;5052584;28;19920;-74
2022/03/23 03:04:35;;;;;;;;;;;;;;;;;;5052443;28;20300;-73
2022/03/23 03:07:01;;;;;;;;;;;;;;;;;;5052712;28;19917;-73
2022/03/23 03:09:26;;;;;;;;;;;;;;;;;;5052483;28;19920;-74
2022/03/23 03:11:52;;;;;;;;;;;;;;;;;;5052462;28;19913;-74
2022/03/23 03:14:18;;;;;;;;;;;;;;;;;;5052534;28;19931;-74
2022/03/23 03:16:44;;;;;;;;;;;;;;;;;;5052315;28;19913;-74
2022/03/23 03:19:12;;;;;;;;;;;18.80;64.20;;;;;;5050975;28;20024;-73
2022/03/23 03:21:38;;;;;;;;;;;8.20;77.90;;;;;;5052223;28;19978;-73
2022/03/23 03:24:04;;;;;;;;;;;7.90;77.90;;;;;;5050847;28;19924;-73
2022/03/23 03:26:30;;;;;;;;;;;7.90;77.20;;;;;;5050787;28;20387;-73
2022/03/23 03:28:57;;;;;;;;;;;7.80;77.20;;;;;;5050579;28;19909;-74
2022/03/23 03:31:22;;;;;;;;;;;7.70;77.70;;;;;;5051976;28;19994;-74
2022/03/23 03:33:48;;;;;;;;;;;7.70;77.80;;;;;;5052453;28;20345;-74
2022/03/23 03:36:13;;;;;;;;;;;6.20;77.90;;;;;;5051925;28;19921;-74
2022/03/23 03:38:40;;;;;;;;;;;7.50;78.10;;;;;;5050812;28;19913;-74
2022/03/23 03:41:06;;;;;;;;;;;7.50;78.10;;;;;;5052171;28;20332;-74
2022/03/23 03:43:32;;;;;;;;;;;7.40;78.40;;;;;;5052251;28;19920;-74
2022/03/23 03:45:58;;;;;;;;;;;7.40;78.40;;;;;;5050840;28;20396;-73
2022/03/23 03:48:24;;;;;;;;;;;7.40;78.30;;;;;;5051434;28;19996;-74
2022/03/23 03:50:50;;;;;;;;;;;7.40;78.50;;;;;;5050450;28;19924;-73
2022/03/23 03:53:16;;;;;;;;;;;7.30;78.80;;;;;;5052069;28;19909;-74
2022/03/23 03:55:41;;;;;;;;;;;7.30;78.80;;;;;;5050266;28;19925;-74
2022/03/23 03:58:08;;;;;;;;;;;7.20;78.90;;;;;;5051545;28;20280;-73
2022/03/23 04:00:34;;;;;;;;;;;7.20;79.10;;;;;;5050160;28;19917;-73
2022/03/23 04:03:00;;;;;;;;;;;7.20;79.10;;;;;;5051294;28;20261;-73
2022/03/23 04:05:28;;;;;;;;;;;7.20;79.20;;;;;;5050154;28;19970;-74
2022/03/23 04:07:55;;;;;;;;;;;7.20;79.00;;;;;;5050103;28;20284;-72
2022/03/23 04:10:21;;;;;;;;;;;7.10;79.10;;;;;;5051591;28;19913;-73
2022/03/23 04:12:46;;;;;;;;;;;7.10;79.30;;;;;;5050398;28;19913;-73
2022/03/23 04:15:12;;;;;;;;;;;7.00;79.50;;;;;;5050150;28;19917;-73
2022/03/23 04:17:38;;;;;;;;;;;7.00;79.70;;;;;;5050169;28;19912;-74
2022/03/23 04:20:04;;;;;;;;;;;7.00;79.80;;;;;;5051463;28;19995;-74
2022/03/23 04:22:29;;;;;;;;;;;6.90;80.30;;;;;;5050183;28;20272;-72
2022/03/23 04:24:55;;;;;;;;;;;6.90;80.30;;;;;;5049922;28;19924;-73
2022/03/23 04:27:21;;;;;;;;;;;6.80;80.20;;;;;;5050045;28;19913;-73
2022/03/23 04:29:46;;;;;;;;;;;6.90;80.30;;;;;;5049867;28;19916;-73
2022/03/23 04:32:12;;;;;;;;;;;6.90;80.40;;;;;;5049909;28;20033;-73
2022/03/23 04:34:37;;;;;;;;;;;6.90;80.40;;;;;;5051145;28;19913;-73
2022/03/23 04:37:03;;;;;;;;;;;6.80;80.30;;;;;;5049800;28;19916;-73
2022/03/23 04:39:29;;;;;;;;;;;6.90;80.30;;;;;;5049923;28;19913;-73
2022/03/23 04:41:54;;;;;;;;;;;6.90;80.30;;;;;;5051315;28;19940;-74
2022/03/23 04:44:21;;;;;;;;;;;6.80;80.60;;;;;;5050065;28;20023;-73
2022/03/23 04:46:47;;;;;;;;;;;6.80;80.80;;;;;;5050914;28;19996;-73
2022/03/23 04:49:13;;;;;;;;;;;6.80;81.70;;;;;;5051323;28;20458;-73
2022/03/23 04:51:38;;;;;;;;;;;6.80;81.80;;;;;;5049600;28;19944;-73
2022/03/23 04:54:05;;;;;;;;;;;6.80;81.80;;;;;;5051334;28;19999;-73
2022/03/23 04:56:30;;;;;;;;;;;6.80;81.70;;;;;;5051249;28;19912;-73
2022/03/23 04:58:56;;;;;;;;;;;6.80;81.60;;;;;;5052043;28;19923;-72
2022/03/23 05:01:22;;;;;;;;;;;6.90;82.50;;;;;;5054825;28;19917;-72
2022/03/23 05:03:47;;;;;;;;;;;6.90;82.20;;;;;;5054656;28;20571;-74
2022/03/23 05:06:13;;;;;;;;;;;7.00;82.10;;;;;;5054903;28;19913;-74
2022/03/23 05:08:38;;;;;;;;;;;7.50;82.00;;;;;;5053672;28;19966;-73
2022/03/23 05:11:04;;;;;;;;;;;8.10;80.70;;;;;;5054705;28;19963;-73
2022/03/23 05:13:29;;;;;;;;;;;8.60;78.30;;;;;;5055081;28;19916;-73
2022/03/23 05:15:55;;;;;;;;;;;8.80;77.20;;;;;;5053325;28;19978;-73
2022/03/23 05:18:21;;;;;;;;;;;8.80;76.50;;;;;;5054903;28;19919;-73
2022/03/23 05:20:47;;;;;;;;;;;8.80;76.60;;;;;;5054482;28;20288;-73
2022/03/23 05:23:13;;;;;;;;;;;8.80;76.70;;;;;;5054281;28;20290;-74
2022/03/23 05:25:39;;;;;;;;;;;8.90;76.80;;;;;;5054420;28;19941;-74
2022/03/23 05:28:08;;;;;;;;;;;8.90;77.00;;;;;;5052975;28;19920;-74
2022/03/23 05:30:34;;;;;;;;;;;9.10;77.50;;;;;;5054448;28;19913;-72
2022/03/23 05:33:00;;;;;;;;;;;9.20;76.80;;;;;;5054344;28;20218;-74
2022/03/23 05:35:26;;;;;;;;;;;9.30;76.80;;;;;;5052911;28;19920;-73
2022/03/23 05:37:51;;;;;;;;;;;9.50;76.20;;;;;;5052652;28;19917;-73
2022/03/23 05:40:17;;;;;;;;;;;9.70;75.90;;;;;;5052934;28;20422;-74
2022/03/23 05:42:43;;;;;;;;;;;9.80;75.60;;;;;;5054312;28;19912;-73
2022/03/23 05:45:08;;;;;;;;;;;10.00;75.20;;;;;;5054028;28;19970;-74
2022/03/23 05:47:35;;;;;;;;;;;10.20;74.60;;;;;;5053967;28;19912;-72
2022/03/23 05:50:00;;;;;;;;;;;10.30;74.50;;;;;;5054073;28;19951;-72
2022/03/23 05:52:26;;;;;;;;;;;10.40;74.50;;;;;;5052725;28;19956;-72
2022/03/23 05:54:52;;;;;;;;;;;10.60;74.30;;;;;;5052866;28;20345;-72
2022/03/23 05:57:17;;;;;;;;;;;10.60;74.10;;;;;;5052757;28;19919;-72
2022/03/23 05:59:43;;;;;;;;;;;10.80;73.50;;;;;;5053837;28;19913;-73
2022/03/23 06:02:08;;;;;;;;;;;11.00;72.80;;;;;;5053472;28;19924;-73
2022/03/23 06:04:34;;;;;;;;;;;11.10;72.30;;;;;;5053833;28;20299;-74
2022/03/23 06:06:59;;;;;;;;;;;11.20;71.90;;;;;;5053632;28;20411;-74
2022/03/23 06:09:25;;;;;;;;;;;11.40;72.00;;;;;;5053844;28;19920;-73
2022/03/23 06:11:51;;;;;;;;;;;11.50;71.90;;;;;;5052833;28;19916;-73
2022/03/23 06:14:16;;;;;;;;;;;11.60;71.30;;;;;;5053760;28;19975;-73
2022/03/23 06:16:42;;;;;;;;;;;11.60;71.00;;;;;;5053515;28;19917;-73
2022/03/23 06:19:10;;;;;;;;;;;11.80;70.90;;;;;;5052098;28;19912;-73
2022/03/23 06:21:36;;;;;;;;;;;11.90;70.40;;;;;;5052435;28;19959;-73
2022/03/23 06:24:02;;;;;;;;;;;12.10;70.20;;;;;;5053402;28;20296;-74
2022/03/23 06:26:27;;;;;;;;;;;12.20;70.20;;;;;;5053493;28;20257;-73
2022/03/23 06:28:53;;;;;;;;;;;12.30;70.00;;;;;;5053208;28;19920;-74
2022/03/23 06:31:20;;;;;;;;;;;12.40;70.40;;;;;;5052013;28;19913;-74
2022/03/23 06:33:46;;;;;;;;;;;12.60;70.60;;;;;;5053057;28;20272;-74
2022/03/23 06:36:12;;;;;;;;;;;12.80;70.70;;;;;;5051915;28;19917;-74
2022/03/23 06:38:37;;;;;;;;;;;13.10;71.50;;;;;;5051637;28;19909;-74
2022/03/23 06:41:03;;;;;;;;;;;13.20;70.00;;;;;;5053146;28;19976;-74
2022/03/23 06:43:29;;;;;;;;;;;13.30;69.20;;;;;;5051607;28;19920;-74
2022/03/23 06:45:54;;;;;;;;;;;13.50;70.00;;;;;;5052866;28;19912;-74
2022/03/23 06:48:20;;;;;;;;;;;13.70;70.50;;;;;;5053534;28;19912;-72
2022/03/23 06:50:45;;;;;;;;;;;13.90;68.30;;;;;;5051753;28;19916;-72
2022/03/23 06:53:11;;;;;;;;;;;13.90;67.40;;;;;;5052836;28;19916;-73
2022/03/23 06:55:37;;;;;;;;;;;14.00;67.10;;;;;;5051692;28;19979;-72
2022/03/23 06:58:03;;;;;;;;;;;14.10;66.80;;;;;;5051230;28;19917;-72
2022/03/23 07:00:28;;;;;;;;;;;14.20;66.30;;;;;;5052663;28;20389;-72
2022/03/23 07:02:54;;;;;;;;;;;14.40;66.80;;;;;;5052422;28;19932;-74
2022/03/23 07:05:20;;;;;;;;;;;14.50;67.60;;;;;;5052913;28;19962;-74
2022/03/23 07:10:37;;;;;;;;;;;14.80;69.20;;;;;;5036338;28;19913;-73
2022/03/23 07:13:03;;;;;;;;;;;15.00;69.00;;;;;;5052468;28;19917;-73
2022/03/23 07:15:29;;;;;;;;;;;15.00;68.90;;;;;;5052392;28;19912;-74
2022/03/23 07:17:54;;;;;;;;;;;15.20;68.80;;;;;;5052325;28;19913;-74
2022/03/23 07:20:20;;;;;;;;;;;15.30;68.60;;;;;;5051009;28;19913;-73
2022/03/23 07:22:46;;;;;;;;;;;15.40;68.30;;;;;;5051251;28;19913;-73
2022/03/23 07:25:12;;;;;;;;;;;15.40;67.20;;;;;;5052529;28;19928;-73
2022/03/23 07:27:37;;;;;;;;;;;15.40;66.80;;;;;;5052081;28;19912;-74
2022/03/23 07:30:04;;;;;;;;;;;15.40;66.20;;;;;;5050849;28;19912;-73
2022/03/23 07:32:30;;;;;;;;;;;15.50;65.90;;;;;;5050676;28;20343;-73
2022/03/23 07:34:55;;;;;;;;;;;15.50;66.40;;;;;;5050658;28;19917;-73
2022/03/23 07:37:21;;;;;;;;;;;15.60;65.60;;;;;;5050973;28;19970;-72
2022/03/23 07:39:47;;;;;;;;;;;15.80;65.60;;;;;;5052197;28;19920;-73
2022/03/23 07:42:12;;;;;;;;;;;16.00;64.60;;;;;;5052008;28;19917;-73
2022/03/23 07:44:38;;;;;;;;;;;16.20;63.80;;;;;;5051999;28;19924;-74
2022/03/23 07:47:07;;;;;;;;;;;16.30;62.90;;;;;;5051610;28;19941;-74
2022/03/23 07:49:33;;;;;;;;;;;16.40;62.40;;;;;;5050425;28;19952;-74
2022/03/23 07:52:02;;;;;;;;;;;16.30;61.80;;;;;;5051827;28;19940;-75
2022/03/23 07:54:27;;;;;;;;;;;16.40;61.70;;;;;;5050418;28;19992;-74
2022/03/23 07:56:53;;;;;;;;;;;16.50;61.10;;;;;;5051731;28;20399;-74
2022/03/23 07:59:19;;;;;;;;;;;16.50;60.70;;;;;;5050238;28;19913;-74
2022/03/23 08:01:44;;;;;;;;;;;16.50;61.60;;;;;;5051875;28;20244;-74
2022/03/23 08:04:10;;;;;;;;;;;16.60;61.50;;;;;;5049911;28;20073;-73
2022/03/23 08:06:36;;;;;;;;;;;16.80;61.20;;;;;;5050149;28;19924;-74
2022/03/23 08:09:02;;;;;;;;;;;16.80;60.90;;;;;;5051354;28;19912;-73
2022/03/23 08:11:28;;;;;;;;;;;16.90;60.90;;;;;;5050269;28;20384;-73
2022/03/23 08:13:54;;;;;;;;;;;16.80;60.60;;;;;;5050170;28;19917;-75
2022/03/23 08:16:19;;;;;;;;;;;16.80;60.90;;;;;;5051485;28;20030;-74
2022/03/23 08:18:45;;;;;;;;;;;16.70;60.90;;;;;;5051366;28;19916;-74
2022/03/23 08:21:10;;;;;;;;;;;16.60;61.10;;;;;;5050041;28;20395;-74
2022/03/23 08:23:37;;;;;;;;;;;16.70;61.50;;;;;;5051146;28;19917;-73
2022/03/23 08:26:08;;;;;;;;;;;16.80;61.00;;;;;;5051213;28;20438;-74
2022/03/23 08:28:34;;;;;;;;;;;16.90;61.00;;;;;;5051484;28;20432;-74
2022/03/23 08:30:59;;;;;;;;;;;17.30;60.80;;;;;;5049844;28;19963;-73
2022/03/23 08:33:26;;;;;;;;;;;17.50;60.40;;;;;;5051170;28;19913;-74
2022/03/23 08:35:52;;;;;;;;;;;17.80;60.00;;;;;;5055705;28;19943;-73
2022/03/23 08:38:17;;;;;;;;;;;17.90;59.70;;;;;;5055259;28;19913;-74
2022/03/23 08:40:44;;;;;;;;;;;17.90;59.80;;;;;;5053845;28;19966;-74
2022/03/23 08:43:10;;;;;;;;;;;18.00;59.70;;;;;;5055406;28;19948;-74
2022/03/23 08:45:36;;;;;;;;;;;18.10;59.90;;;;;;5053954;28;19952;-74
2022/03/23 08:48:03;;;;;;;;;;;18.30;59.20;;;;;;5054758;28;20126;-74
2022/03/23 08:50:29;;;;;;;;;;;18.40;59.50;;;;;;5053805;28;19914;-74
2022/03/23 08:52:55;;;;;;;;;;;18.50;59.60;;;;;;5055042;28;19920;-74
2022/03/23 08:55:23;;;;;;;;;;;18.60;59.10;;;;;;5055191;28;20288;-74
2022/03/23 08:57:48;;;;;;;;;;;18.60;59.00;;;;;;5053510;28;19913;-74
2022/03/23 09:00:15;;;;;;;;;;;18.70;59.00;;;;;;5053482;28;19913;-74
2022/03/23 09:02:40;;;;;;;;;;;18.80;58.80;;;;;;5053244;28;20297;-75
2022/03/23 09:05:09;;;;;;;;;;;18.80;58.60;;;;;;5054862;28;19923;-74
2022/03/23 09:07:36;;;;;;;;;;;18.80;58.70;;;;;;5054622;28;19963;-74
2022/03/23 09:10:01;;;;;;;;;;;19.00;58.80;;;;;;5053416;28;20296;-73
2022/03/23 09:12:28;;;;;;;;;;;19.20;58.60;;;;;;5053204;28;20369;-73
2022/03/23 09:14:53;;;;;;;;;;;19.40;58.10;;;;;;5054715;28;19970;-73
2022/03/23 09:17:19;;;;;;;;;;;19.80;58.30;;;;;;5054929;28;19921;-74
2022/03/23 09:19:44;;;;;;;;;;;20.20;57.50;;;;;;5054684;28;19913;-74
2022/03/23 09:22:10;;;;;;;;;;;20.20;57.50;;;;;;5052927;28;19913;-73
2022/03/23 09:24:36;;;;;;;;;;;20.30;57.20;;;;;;5053047;28;19917;-74
2022/03/23 09:27:01;;;;;;;;;;;20.20;56.80;;;;;;5054133;28;19916;-74
2022/03/23 09:29:27;;;;;;;;;;;20.00;57.00;;;;;;5053200;28;19916;-74
2022/03/23 09:31:52;;;;;;;;;;;19.90;57.10;;;;;;5054240;28;19916;-74
2022/03/23 09:34:18;;;;;;;;;;;19.90;57.40;;;;;;5052945;28;19928;-73
2022/03/23 09:39:28;;;;;;;;;;;19.80;58.00;;;;;;5054230;28;19936;-74
2022/03/23 09:41:56;;;;;;;;;;;19.90;57.50;;;;;;5054050;28;20400;-74
2022/03/23 09:44:24;;;;;;;;;;;20.20;57.00;;;;;;5054380;28;19916;-74
2022/03/23 09:46:49;;;;;;;;;;;20.30;56.30;;;;;;5053048;28;19920;-74
2022/03/23 09:49:15;;;;;;;;;;;20.20;56.30;;;;;;5054294;28;19912;-73
2022/03/23 09:51:42;;;;;;;;;;;20.20;56.10;;;;;;5054219;28;20284;-75
2022/03/23 09:54:07;;;;;;;;;;;20.10;56.80;;;;;;5052955;28;20051;-75
2022/03/23 09:56:33;;;;;;;;;;;20.00;56.50;;;;;;5054601;28;20411;-74
2022/03/23 09:59:01;;;;;;;;;;;20.10;56.70;;;;;;5052606;28;19917;-75
2022/03/23 10:01:33;;;;;;;;;;;20.10;56.20;;;;;;5053843;28;19989;-75
2022/03/23 10:04:02;;;;;;;;;;;20.20;56.10;;;;;;5052007;28;19921;-75
2022/03/23 10:06:47;;;;;;;;;;;20.20;56.80;;;;;;5053611;28;20002;-74
2022/03/23 10:09:25;;;;;;;;;;;20.30;56.00;;;;;;5052364;28;19960;-74
2022/03/23 10:12:06;;;;;;;;;;;20.20;56.00;;;;;;5052042;28;19912;-74
2022/03/23 10:14:46;;;;;;;;;;;19.90;56.30;;;;;;5053688;28;20007;-75
2022/03/23 10:17:24;;;;;;;;;;;20.00;56.60;;;;;;5053452;28;19959;-75
2022/03/23 10:19:49;;;;;;;;;;;20.10;56.10;;;;;;5052133;28;19913;-74
2022/03/23 10:22:15;;;;;;;;;;;20.20;56.00;;;;;;5053264;28;20365;-74
2022/03/23 10:24:41;;;;;;;;;;;20.30;56.80;;;;;;5053209;28;19924;-74
2022/03/23 10:27:17;;;;;;;;;;;20.20;55.90;;;;;;5051744;28;19930;-74
2022/03/23 10:29:44;;;;;;;;;;;20.00;56.00;;;;;;5052229;28;19991;-75
2022/03/23 10:32:10;;;;;;;;;;;19.90;57.00;;;;;;5053181;28;20348;-75
2022/03/23 10:34:43;;;;;;;;;;;20.00;56.90;;;;;;5053208;28;19909;-74
2022/03/23 10:37:09;;;;;;;;;;;20.30;56.70;;;;;;5052983;28;20332;-74
2022/03/23 10:39:35;;;;;;;;;;;20.50;56.20;;;;;;5052977;28;19952;-74
2022/03/23 10:42:07;;;;;;;;;;;20.50;56.20;;;;;;5051589;28;20395;-74
2022/03/23 10:44:32;;;;;;;;;;;20.60;56.30;;;;;;5053162;28;20298;-74
2022/03/23 10:46:58;;;;;;;;;;;21.70;56.70;;;;;;5052842;28;19921;-73
2022/03/23 10:49:37;;;;;;;;;;;20.80;55.80;;;;;;5052764;28;19920;-74
2022/03/23 10:52:06;;;;;;;;;;;21.10;55.90;;;;;;5052727;28;20292;-74
2022/03/23 10:54:32;;;;;;;;;;;21.40;55.50;;;;;;5052982;28;20003;-74
2022/03/23 10:56:58;;;;;;;;;;;21.70;55.20;;;;;;5050913;28;19999;-75
2022/03/23 10:59:28;;;;;;;;;;;21.60;54.90;;;;;;5052932;28;19912;-73
2022/03/23 11:02:05;;;;;;;;;;;21.80;54.80;;;;;;5051271;28;19921;-74
2022/03/23 11:04:44;;;;;;;;;;;21.70;54.40;;;;;;5051198;28;19928;-74
2022/03/23 11:07:26;;;;;;;;;;;21.80;54.50;;;;;;5051264;28;19912;-73
2022/03/23 11:18:05;;;;;;;;;;;22.00;53.90;;;;;;5052141;28;19971;-75
2022/03/23 11:20:41;;;;;;;;;;;21.90;53.90;;;;;;5052509;28;19912;-74
2022/03/23 11:23:19;;;;;;;;;;;22.10;53.70;;;;;;5051650;28;19912;-74
2022/03/23 11:25:46;;;;;;;;;;;22.20;53.30;;;;;;5052466;28;20280;-73
2022/03/23 11:28:13;;;;;;;;;;;22.00;53.70;;;;;;5051982;28;19924;-74
2022/03/23 11:30:39;;;;;;;;;;;21.90;53.70;;;;;;5052640;28;20400;-74
2022/03/23 11:33:07;;;;;;;;;;;21.80;53.70;;;;;;5052204;28;19913;-73
2022/03/23 11:35:34;;;;;;;;;;;21.60;53.60;;;;;;5051016;28;20007;-73
2022/03/23 11:38:00;;;;;;;;;;;21.40;54.50;;;;;;5051895;28;19959;-74
2022/03/23 11:40:26;;;;;;;;;;;21.20;54.90;;;;;;5052499;28;19952;-76
2022/03/23 11:42:52;;;;;;;;;;;21.10;54.80;;;;;;5050480;28;19917;-73
2022/03/23 11:45:18;;;;;;;;;;;21.10;54.70;;;;;;5051980;28;19917;-73
2022/03/23 11:48:04;;;;;;;;;;;21.10;54.70;;;;;;5051670;28;19913;-74
2022/03/23 11:50:41;;;;;;;;;;;21.00;54.60;;;;;;5051517;28;20246;-74
2022/03/23 11:53:29;;;;;;;;;;;20.90;54.70;;;;;;5050222;28;19971;-75
2022/03/23 11:55:56;;;;;;;;;;;20.70;55.10;;;;;;5052181;28;20359;-74
2022/03/23 11:58:32;;;;;;;;;;;20.40;55.80;;;;;;5050353;28;20315;-74
2022/03/23 12:01:11;;;;;;;;;;;20.00;56.00;;;;;;5051533;28;19965;-75
2022/03/23 12:03:40;;;;;;;;;;;19.70;56.40;;;;;;5049817;28;20016;-75
2022/03/23 12:06:16;;;;;;;;;;;19.50;57.10;;;;;;5050218;28;20027;-73
2022/03/23 12:08:49;;;;;;;;;;;19.20;57.30;;;;;;5049359;28;19909;-74
2022/03/23 12:11:34;;;;;;;;;;;19.00;57.60;;;;;;5051848;28;19917;-73
2022/03/23 12:14:00;;;;;;;;;;;18.80;57.80;;;;;;5051540;28;19909;-74
2022/03/23 12:16:44;;;;;;;;;;;18.40;58.30;;;;;;5050172;28;19948;-74
2022/03/23 12:19:10;;;;;;;;;;;18.10;58.70;;;;;;5049985;28;19909;-74
2022/03/23 12:21:50;;;;;;;;;;;18.00;59.20;;;;;;5051509;28;20394;-74
2022/03/23 12:24:32;;;;;;;;;;;17.80;59.20;;;;;;5051913;28;19913;-74
2022/03/23 12:26:59;;;;;;;;;;;18.30;59.60;;;;;;5050043;28;19927;-73
2022/03/23 12:29:29;;;;;;;;;;;17.70;59.30;;;;;;5051412;28;19909;-74
2022/03/23 12:32:21;;;;;;;;;;;17.60;59.20;;;;;;5049972;28;19924;-74
2022/03/23 12:34:51;;;;;;;;;;;17.60;59.60;;;;;;5046905;28;19909;-73
2022/03/23 12:37:18;;;;;;;;;;;17.40;59.80;;;;;;5050103;28;19917;-72
2022/03/23 12:39:45;;;;;;;;;;;17.40;59.90;;;;;;5049914;28;19927;-72
2022/03/23 12:42:15;;;;;;;;;;;17.30;60.10;;;;;;5051246;28;19917;-73
2022/03/23 12:45:04;;;;;;;;;;;17.20;60.50;;;;;;5049857;28;19913;-73
2022/03/23 12:47:32;;;;;;;;;;;17.20;60.40;;;;;;5044719;28;19920;-73
2022/03/23 12:58:23;;;;;;;;;;;17.50;60.00;;;;;;5051511;28;19946;-73
2022/03/23 13:00:49;;;;;;;;;;;17.70;59.90;;;;;;5051144;28;19909;-75
2022/03/23 13:03:18;;;;;;;;;;;17.80;59.60;;;;;;5049516;28;19971;-73
2022/03/23 13:05:59;;;;;;;;;;;18.00;59.30;;;;;;5049854;28;19921;-74
2022/03/23 13:08:29;;;;;;;;;;;18.10;59.30;;;;;;5049579;28;20408;-75
2022/03/23 13:10:58;;;;;;;;;;;18.20;59.00;;;;;;5050844;28;19913;-73
2022/03/23 13:13:25;;;;;;;;;;;18.20;58.80;;;;;;5050880;28;19913;-74
2022/03/23 13:15:51;;;;;;;;;;;18.10;58.80;;;;;;5049808;28;19935;-74
2022/03/23 13:18:16;;;;;;;;;;;18.10;59.20;;;;;;5050001;28;20305;-74
2022/03/23 13:20:52;;;;;;;;;;;18.00;59.20;;;;;;5051683;28;19944;-74
2022/03/23 13:23:19;;;;;;;;;;;18.00;59.60;;;;;;5053434;28;19916;-73
2022/03/23 13:25:45;;;;;;;;;;;18.00;59.20;;;;;;5053267;28;20407;-75
2022/03/23 13:28:13;;;;;;;;;;;18.00;59.20;;;;;;5053057;28;20562;-73
2022/03/23 13:30:39;;;;;;;;;;;18.00;59.40;;;;;;5054928;28;19919;-75
2022/03/23 13:33:08;;;;;;;;;;;17.90;59.50;;;;;;5054496;28;19913;-74
2022/03/23 13:35:40;;;;;;;;;;;17.80;59.40;;;;;;5053288;28;19916;-73
2022/03/23 13:38:07;;;;;;;;;;;17.90;59.50;;;;;;5054455;28;19913;-73
2022/03/23 13:43:25;;;;;;;;;;;17.70;59.80;;;;;;5054481;28;19920;-74
2022/03/23 13:45:52;;;;;;;;;;;17.60;59.40;;;;;;5054065;28;19913;-73
2022/03/23 13:48:18;;;;;;;;;;;17.50;59.80;;;;;;5054431;28;20319;-74
2022/03/23 13:50:45;;;;;;;;;;;17.50;59.90;;;;;;5054301;28;19912;-73
2022/03/23 13:53:13;;;;;;;;;;;17.40;59.90;;;;;;5054052;28;19935;-73
2022/03/23 13:55:39;;;;;;;;;;;17.40;60.00;;;;;;5052849;28;20354;-73
2022/03/23 13:58:06;;;;;;;;;;;17.40;60.00;;;;;;5053809;28;19920;-74
2022/03/23 14:00:32;;;;;;;;;;;17.40;60.00;;;;;;5053787;28;19913;-73
2022/03/23 14:02:58;;;;;;;;;;;17.30;60.00;;;;;;5053607;28;19924;-73
2022/03/23 14:05:28;;;;;;;;;;;17.30;60.30;;;;;;5053985;28;19932;-75
2022/03/23 14:07:58;;;;;;;;;;;17.20;60.30;;;;;;5053643;28;19922;-74
2022/03/23 14:10:36;;;;;;;;;;;17.10;60.00;;;;;;5052503;28;20492;-73
2022/03/23 14:13:09;;;;;;;;;;;17.00;60.40;;;;;;5053708;28;20008;-74
2022/03/23 14:15:51;;;;;;;;;;;17.00;60.60;;;;;;5053954;28;19959;-75
2022/03/23 14:18:21;;;;;;;;;;;16.90;60.50;;;;;;5053645;28;19912;-73
2022/03/23 14:20:52;;;;;;;;;;;16.80;60.40;;;;;;5054038;28;19924;-74
2022/03/23 14:23:20;;;;;;;;;;;16.80;60.90;;;;;;5053573;28;19913;-73
2022/03/23 14:25:49;;;;;;;;;;;16.70;60.90;;;;;;5052124;28;20387;-74
2022/03/23 14:28:16;;;;;;;;;;;16.50;60.90;;;;;;5052193;28;19917;-74
2022/03/23 14:30:45;;;;;;;;;;;16.50;61.60;;;;;;5052269;28;20004;-75
2022/03/23 14:33:11;;;;;;;;;;;16.50;61.50;;;;;;5052841;28;19913;-72
2022/03/23 14:35:41;;;;;;;;;;;16.50;61.50;;;;;;5053696;28;19936;-74
2022/03/23 14:38:12;;;;;;;;;;;16.40;61.70;;;;;;5051741;28;19952;-74
2022/03/23 14:40:44;;;;;;;;;;;16.40;61.50;;;;;;5051684;28;19912;-74
2022/03/23 14:43:28;;;;;;;;;;;16.30;61.90;;;;;;5051865;28;19913;-74
2022/03/23 14:45:54;;;;;;;;;;;16.20;61.80;;;;;;5053555;28;19920;-73
2022/03/23 14:48:49;;;;;;;;;;;16.20;62.20;;;;;;5053028;28;19913;-75
2022/03/23 14:51:15;;;;;;;;;;;16.10;62.10;;;;;;5029750;28;19917;-72
2022/03/23 14:53:40;;;;;;;;;;;16.00;62.10;;;;;;5051991;28;19909;-73
2022/03/23 14:56:06;;;;;;;;;;;16.00;62.80;;;;;;5052908;28;19917;-74
2022/03/23 14:58:33;;;;;;;;;;;15.90;62.50;;;;;;5052820;28;19908;-74
2022/03/23 15:00:59;;;;;;;;;;;15.90;62.50;;;;;;5051632;28;19969;-74
2022/03/23 15:03:29;;;;;;;;;;;15.80;62.70;;;;;;5051416;28;19927;-73
2022/03/23 15:14:08;;;;;;;;;;;15.70;63.00;;;;;;5053000;28;20004;-74
2022/03/23 15:16:36;;;;;;;;;;;15.60;63.10;;;;;;5052602;28;20360;-74
2022/03/23 15:19:03;;;;;;;;;;;15.60;63.20;;;;;;5051128;28;20398;-73
2022/03/23 15:21:28;;;;;;;;;;;15.60;63.50;;;;;;5051184;28;19999;-73
2022/03/23 15:23:54;;;;;;;;;;;15.60;64.10;;;;;;5052390;28;20019;-75
2022/03/23 15:26:23;;;;;;;;;;;15.50;63.90;;;;;;5051020;28;19967;-73
2022/03/23 15:28:52;;;;;;;;;;;15.50;64.20;;;;;;5050850;28;20012;-73
2022/03/23 15:31:18;;;;;;;;;;;15.40;63.70;;;;;;5052198;28;19921;-74